Time;durP1;ratioP1;P1;durP2;ratioP2;P2;SDS_P1;SDS_P2;PMS_P1;PMS_P2;Temp;Humidity;BMP_temperature;BMP_pressure;BME280_temperature;BME280_humidity;BME280_pressure;Samples;Min_cycle;Max_cycle;Signal;HPM_P1;HPM_P2
2024/02/19 00:04:04;;;;;;;45.60;29.30;;;;;;;1.12;79.36;99583.24;226608;1273;22550;-73
2024/02/19 00:09:13;;;;;;;42.30;27.00;;;;;;;1.15;79.42;99576.95;226598;1276;22545;-73
2024/02/19 00:14:15;;;;;;;47.10;29.40;;;;;;;1.17;79.54;99568.83;226563;1273;22691;-72
2024/02/19 00:19:17;;;;;;;45.40;26.10;;;;;;;1.19;79.49;99568.53;226587;1273;22567;-72
2024/02/19 00:24:19;;;;;;;41.80;26.90;;;;;;;1.18;79.28;99561.86;226614;1274;22557;-73
2024/02/19 00:29:21;;;;;;;39.10;24.10;;;;;;;1.16;79.41;99548.05;226643;1272;22599;-72
2024/02/19 00:34:23;;;;;;;43.60;26.90;;;;;;;1.20;79.27;99545.67;226532;1268;22542;-73
2024/02/19 00:39:25;;;;;;;38.70;24.90;;;;;;;1.20;79.07;99533.04;226596;1269;25594;-73
2024/02/19 00:44:27;;;;;;;40.30;25.00;;;;;;;1.17;79.15;99523.53;226630;1273;22550;-73
2024/02/19 00:49:29;;;;;;;38.00;23.50;;;;;;;1.16;79.36;99518.55;226590;1273;24263;-73
2024/02/19 00:54:31;;;;;;;35.80;24.00;;;;;;;1.17;79.54;99508.77;226396;1274;22539;-74
2024/02/19 00:59:34;;;;;;;41.60;25.20;;;;;;;1.17;79.24;99504.86;226602;1271;22571;-72
2024/02/19 01:04:36;;;;;;;42.20;26.80;;;;;;;1.14;79.46;99496.54;226572;1271;24252;-73
2024/02/19 01:09:38;;;;;;;46.30;27.50;;;;;;;1.14;79.63;99490.25;226542;1273;22527;-72
2024/02/19 01:14:40;;;;;;;43.10;25.70;;;;;;;1.14;79.62;99484.02;226649;1270;22542;-74
2024/02/19 01:19:44;;;;;;;43.30;26.40;;;;;;;1.14;79.58;99474.33;226683;1273;23303;-73
2024/02/19 01:24:48;;;;;;;49.80;28.40;;;;;;;1.13;79.57;99459.44;226619;1276;22579;-74
2024/02/19 01:29:51;;;;;;;37.50;24.10;;;;;;;1.15;79.77;99447.51;226656;1268;22545;-72
2024/02/19 01:34:53;;;;;;;38.80;23.80;;;;;;;1.19;79.76;99440.46;226550;1273;22690;-75
2024/02/19 01:39:55;;;;;;;45.20;27.30;;;;;;;1.22;79.81;99433.48;226586;1271;22546;-72
2024/02/19 01:44:57;;;;;;;44.70;27.60;;;;;;;1.22;79.84;99421.28;226638;1271;22664;-73
2024/02/19 01:50:00;;;;;;;46.70;28.50;;;;;;;1.24;79.72;99410.62;226571;1271;22548;-74
2024/02/19 01:55:03;;;;;;;42.40;28.00;;;;;;;1.25;79.95;99399.55;226642;1272;22561;-73
2024/02/19 02:00:08;;;;;;;48.30;30.90;;;;;;;1.25;80.03;99388.15;226595;1275;22546;-73
2024/02/19 02:05:13;;;;;;;49.60;31.90;;;;;;;1.21;79.84;99380.77;226597;1258;22539;-72
2024/02/19 02:10:15;;;;;;;49.40;31.30;;;;;;;1.14;79.77;99379.75;226452;1271;264347;-73
2024/02/19 02:15:17;;;;;;;55.50;34.50;;;;;;;1.03;80.01;99367.75;226400;1274;22545;-73
2024/02/19 02:20:19;;;;;;;55.80;33.60;;;;;;;1.01;80.15;99359.39;226600;1276;25998;-73
2024/02/19 02:25:22;;;;;;;47.50;29.20;;;;;;;1.03;80.37;99351.24;226585;1272;22583;-72
2024/02/19 02:30:24;;;;;;;49.00;31.80;;;;;;;1.12;80.85;99336.77;226558;1271;22650;-72
2024/02/19 02:35:26;;;;;;;52.10;32.30;;;;;;;1.20;80.54;99329.16;226590;1274;23687;-73
2024/02/19 02:40:28;;;;;;;56.00;34.70;;;;;;;1.26;80.71;99319.04;226585;1276;25252;-73
2024/02/19 02:45:30;;;;;;;50.00;31.00;;;;;;;1.29;80.66;99306.61;226671;1276;22552;-74
2024/02/19 02:50:32;;;;;;;51.70;32.50;;;;;;;1.30;80.49;99311.06;226683;1268;22542;-73
2024/02/19 02:55:34;;;;;;;50.80;33.40;;;;;;;1.29;80.63;99300.55;226613;1271;22566;-73
2024/02/19 03:00:36;;;;;;;47.60;29.30;;;;;;;1.28;80.68;99300.27;226587;1273;22559;-73
2024/02/19 03:05:38;;;;;;;50.10;32.20;;;;;;;1.29;80.67;99297.79;226586;1274;22539;-73
2024/02/19 03:10:40;;;;;;;50.60;32.00;;;;;;;1.29;80.74;99286.50;226481;1276;22560;-73
2024/02/19 03:15:42;;;;;;;49.20;30.90;;;;;;;1.31;80.74;99279.71;226603;1276;22557;-73
2024/02/19 03:20:44;;;;;;;47.30;30.40;;;;;;;1.34;80.88;99276.25;226577;1274;22546;-73
2024/02/19 03:25:46;;;;;;;49.70;32.60;;;;;;;1.35;80.97;99270.20;226428;1274;22542;-73
2024/02/19 03:30:48;;;;;;;56.60;36.10;;;;;;;1.38;80.90;99263.05;226583;1271;22545;-73
2024/02/19 03:35:50;;;;;;;61.00;37.50;;;;;;;1.40;80.94;99255.40;226635;1275;22549;-74
2024/02/19 03:40:54;;;;;;;57.00;37.20;;;;;;;1.42;80.97;99250.61;226669;1275;24259;-73
2024/02/19 03:45:56;;;;;;;56.70;39.00;;;;;;;1.41;80.87;99239.92;226665;1271;22566;-73
2024/02/19 03:50:59;;;;;;;67.90;45.00;;;;;;;1.40;80.98;99234.58;226611;1269;22572;-74
2024/02/19 03:56:01;;;;;;;60.40;39.40;;;;;;;1.42;81.13;99234.13;226439;1274;22571;-74
2024/02/19 04:01:04;;;;;;;50.40;32.10;;;;;;;1.46;81.09;99232.98;226513;1274;25254;-73
2024/02/19 04:06:09;;;;;;;53.20;32.50;;;;;;;1.52;81.14;99229.34;226392;1273;22534;-73
2024/02/19 04:11:18;;;;;;;43.20;28.00;;;;;;;1.62;81.02;99219.75;226618;1274;22551;-73
2024/02/19 04:16:20;;;;;;;47.30;30.60;;;;;;;1.71;80.97;99212.23;226637;1276;22583;-73
2024/02/19 04:21:22;;;;;;;48.60;30.70;;;;;;;1.80;80.73;99212.71;226634;1275;22575;-73
2024/02/19 04:26:24;;;;;;;48.00;29.20;;;;;;;1.89;80.77;99208.76;226672;1276;24315;-73
2024/02/19 04:31:26;;;;;;;49.40;30.50;;;;;;;1.97;80.82;99205.10;226549;1276;22597;-74
2024/02/19 04:36:28;;;;;;;46.20;29.20;;;;;;;2.04;80.81;99201.89;226611;1271;22664;-73
2024/02/19 04:41:31;;;;;;;45.90;30.40;;;;;;;2.12;80.83;99195.86;226583;1275;22550;-73
2024/02/19 04:46:34;;;;;;;49.60;30.30;;;;;;;2.20;80.85;99187.96;226514;1271;22542;-73
2024/02/19 04:51:36;;;;;;;47.30;29.90;;;;;;;2.26;80.93;99185.15;226611;1272;22644;-74
2024/02/19 04:56:38;;;;;;;46.60;30.50;;;;;;;2.34;80.92;99183.33;226612;1274;22558;-73
2024/02/19 05:01:40;;;;;;;46.50;29.40;;;;;;;2.41;80.99;99171.42;226617;1275;22530;-74
2024/02/19 05:06:42;;;;;;;49.20;30.90;;;;;;;2.47;81.02;99170.08;226445;1276;22707;-72
2024/02/19 05:11:44;;;;;;;46.10;31.20;;;;;;;2.53;80.98;99162.62;226393;1276;25216;-72
2024/02/19 05:16:46;;;;;;;53.30;32.30;;;;;;;2.58;81.12;99154.86;226679;1272;25309;-74
2024/02/19 05:21:48;;;;;;;48.70;31.50;;;;;;;2.65;81.19;99151.48;226679;1272;22594;-72
2024/02/19 05:26:50;;;;;;;55.30;32.40;;;;;;;2.71;81.58;99147.48;226344;1271;22546;-72
2024/02/19 05:31:52;;;;;;;51.80;32.00;;;;;;;2.77;81.67;99140.94;226582;1271;22574;-72
2024/02/19 05:36:54;;;;;;;47.40;28.90;;;;;;;2.82;81.90;99141.05;226644;1273;22546;-73
2024/02/19 05:41:56;;;;;;;41.80;26.60;;;;;;;2.81;81.70;99136.95;226552;1276;23573;-73
2024/02/19 05:46:59;;;;;;;48.00;30.00;;;;;;;2.77;81.80;99137.75;226623;1273;22543;-71
2024/02/19 05:52:01;;;;;;;45.20;29.10;;;;;;;2.75;81.97;99134.85;226466;1276;22554;-72
2024/02/19 05:57:06;;;;;;;45.80;29.10;;;;;;;2.74;82.39;99130.91;226640;1271;22567;-73
2024/02/19 06:02:08;;;;;;;42.70;28.60;;;;;;;2.76;82.63;99127.11;226591;1273;22638;-72
2024/02/19 06:07:10;;;;;;;47.10;30.30;;;;;;;2.79;82.91;99123.52;226628;1272;22564;-73
2024/02/19 06:12:13;;;;;;;46.60;30.20;;;;;;;2.83;83.27;99112.89;226416;1271;22724;-72
2024/02/19 06:17:15;;;;;;;39.70;26.40;;;;;;;2.92;83.58;99107.48;226535;1275;22556;-73
2024/02/19 06:22:17;;;;;;;45.60;28.00;;;;;;;3.03;83.87;99096.92;226547;1276;22553;-73
2024/02/19 06:27:19;;;;;;;41.20;25.80;;;;;;;3.16;84.24;99089.71;226540;1273;22602;-76
2024/02/19 06:32:22;;;;;;;39.10;26.50;;;;;;;3.34;84.76;99085.05;226630;1273;22622;-73
2024/02/19 06:37:24;;;;;;;32.40;22.00;;;;;;;3.51;85.16;99078.81;226666;1274;22558;-73
2024/02/19 06:42:27;;;;;;;40.10;25.00;;;;;;;3.69;85.48;99073.16;226684;1275;22533;-72
2024/02/19 06:47:28;;;;;;;30.80;21.20;;;;;;;3.84;85.66;99069.31;226658;1274;22562;-73
2024/02/19 06:52:30;;;;;;;29.50;21.10;;;;;;;4.01;85.95;99072.35;226654;1275;22569;-79
2024/02/19 06:57:33;;;;;;;45.70;30.70;;;;;;;4.19;86.34;99067.37;226363;1265;22557;-73
2024/02/19 07:02:35;;;;;;;19.60;14.50;;;;;;;4.43;86.54;99066.19;226127;1262;25434;-75
2024/02/19 07:07:37;;;;;;;18.10;12.60;;;;;;;4.70;86.81;99063.19;226228;1273;22534;-75
2024/02/19 07:12:39;;;;;;;16.90;12.20;;;;;;;4.93;86.59;99061.13;226299;1271;23364;-78
2024/02/19 07:17:42;;;;;;;15.70;11.70;;;;;;;5.09;86.46;99059.97;226325;1252;22662;-74
2024/02/19 07:22:44;;;;;;;18.00;13.40;;;;;;;5.20;86.54;99061.67;225942;1268;22642;-74
2024/02/19 07:27:45;;;;;;;18.00;13.10;;;;;;;5.30;86.16;99050.94;226215;1263;22547;-75
2024/02/19 07:32:47;;;;;;;16.10;12.30;;;;;;;5.40;86.09;99051.52;226228;1273;22561;-73
2024/02/19 07:37:50;;;;;;;21.90;14.80;;;;;;;5.49;85.52;99054.37;226006;1257;22531;-73
2024/02/19 07:42:51;;;;;;;19.70;13.80;;;;;;;5.57;85.67;99052.55;225999;1265;22594;-79
2024/02/19 07:47:53;;;;;;;17.20;13.60;;;;;;;5.67;85.61;99053.06;226092;1272;22561;-75
2024/02/19 07:52:56;;;;;;;16.60;12.60;;;;;;;5.77;85.14;99043.88;226166;1274;22565;-76
2024/02/19 07:57:58;;;;;;;20.10;14.00;;;;;;;5.87;84.91;99040.45;226038;1272;22545;-75
2024/02/19 08:03:00;;;;;;;16.70;12.30;;;;;;;5.95;85.03;99037.05;226017;1271;22548;-75
2024/02/19 08:08:02;;;;;;;17.80;13.90;;;;;;;6.02;85.18;99028.48;226105;1271;22549;-75
2024/02/19 08:13:04;;;;;;;17.40;13.30;;;;;;;6.10;84.81;99019.13;226237;1275;23003;-76
2024/02/19 08:18:09;;;;;;;16.40;13.00;;;;;;;6.24;84.80;99025.19;226629;1262;24273;-75
2024/02/19 08:23:12;;;;;;;14.80;11.90;;;;;;;6.40;84.68;99021.61;226738;1271;22554;-75
2024/02/19 08:28:14;;;;;;;14.80;11.50;;;;;;;6.58;84.80;99015.84;226583;1259;22569;-75
2024/02/19 08:33:16;;;;;;;15.40;11.20;;;;;;;6.71;84.40;99013.34;226327;1267;22648;-76
2024/02/19 08:38:18;;;;;;;15.40;11.80;;;;;;;6.85;84.38;99007.94;226262;1260;22549;-76
2024/02/19 08:43:20;;;;;;;15.00;11.70;;;;;;;6.96;84.19;99001.88;226330;1268;23026;-78
2024/02/19 08:48:22;;;;;;;16.20;11.50;;;;;;;7.07;83.90;99000.77;226419;1257;22573;-75
2024/02/19 08:53:25;;;;;;;13.30;10.80;;;;;;;7.14;84.19;98997.03;226428;1256;22579;-75
2024/02/19 08:58:28;;;;;;;13.10;11.10;;;;;;;7.21;83.67;99001.68;226421;1271;23751;-77
2024/02/19 09:03:30;;;;;;;15.00;11.60;;;;;;;7.27;83.32;99002.35;226441;1261;25650;-75
2024/02/19 09:08:33;;;;;;;12.00;10.50;;;;;;;7.30;83.52;98999.29;226400;1274;22583;-76
2024/02/19 09:13:36;;;;;;;12.90;10.90;;;;;;;7.35;83.29;98996.19;226412;1275;22676;-75
2024/02/19 09:18:38;;;;;;;13.50;10.90;;;;;;;7.40;83.27;98985.63;226429;1256;24248;-74
2024/02/19 09:23:45;;;;;;;15.30;11.30;;;;;;;7.46;82.82;98985.74;226642;1260;22579;-75
2024/02/19 09:28:47;;;;;;;14.50;11.90;;;;;;;7.54;83.03;98985.27;226648;1267;22542;-75
2024/02/19 09:33:49;;;;;;;12.20;9.90;;;;;;;7.57;83.23;98976.50;226334;1267;22551;-74
2024/02/19 09:38:53;;;;;;;11.80;9.60;;;;;;;7.66;82.72;98984.61;226525;1267;22602;-75
2024/02/19 09:43:56;;;;;;;14.70;12.30;;;;;;;7.82;82.97;98972.14;226631;1267;22543;-75
2024/02/19 09:49:00;;;;;;;13.10;10.40;;;;;;;8.01;82.55;98972.61;226443;1273;22570;-77
2024/02/19 09:54:04;;;;;;;13.10;10.10;;;;;;;8.09;82.19;98961.82;226680;1254;22554;-75
2024/02/19 09:59:07;;;;;;;13.50;10.00;;;;;;;8.17;81.86;98963.94;226516;1261;22592;-74
2024/02/19 10:04:14;;;;;;;12.90;10.80;;;;;;;8.23;82.16;98973.30;226634;1267;22548;-74
2024/02/19 10:09:16;;;;;;;12.60;9.80;;;;;;;8.30;81.67;98972.89;226409;1267;22564;-75
2024/02/19 10:14:18;;;;;;;11.70;9.70;;;;;;;8.38;81.82;98966.70;226729;1267;22578;-74
2024/02/19 10:19:20;;;;;;;10.60;8.80;;;;;;;8.49;81.93;98960.77;226387;1258;22565;-73
2024/02/19 10:24:23;;;;;;;10.00;8.40;;;;;;;8.54;81.24;98958.49;226233;1267;22559;-73
2024/02/19 10:29:26;;;;;;;10.50;8.70;;;;;;;8.56;81.21;98955.46;226442;1255;22568;-73
2024/02/19 10:34:28;;;;;;;9.30;7.40;;;;;;;8.54;81.11;98956.02;226561;1275;22543;-71
2024/02/19 10:39:31;;;;;;;10.10;8.70;;;;;;;8.55;81.18;98945.59;226191;1267;23341;-73
2024/02/19 10:44:34;;;;;;;12.20;9.30;;;;;;;8.59;81.27;98949.00;225867;1267;22551;-74
2024/02/19 10:49:36;;;;;;;10.50;9.40;;;;;;;8.69;80.94;98945.54;225902;1260;22598;-74
2024/02/19 10:54:41;;;;;;;10.00;8.40;;;;;;;8.76;81.19;98936.45;226034;1267;22560;-73
2024/02/19 10:59:45;;;;;;;10.50;9.30;;;;;;;8.82;81.07;98925.80;226430;1267;22586;-75
2024/02/19 11:04:50;;;;;;;10.90;9.40;;;;;;;8.87;81.14;98937.58;226631;1267;22576;-74
2024/02/19 11:09:59;;;;;;;10.30;8.80;;;;;;;8.79;80.77;98937.54;226278;1267;22543;-73
2024/02/19 11:15:11;;;;;;;11.40;8.80;;;;;;;8.69;80.86;98935.91;226252;1267;22554;-73
2024/02/19 11:20:23;;;;;;;12.10;8.40;;;;;;;8.61;80.92;98931.54;226119;1267;22568;-74
2024/02/19 11:25:25;;;;;;;10.70;8.50;;;;;;;8.55;80.76;98928.17;225945;1253;22840;-72
2024/02/19 11:30:29;;;;;;;10.70;8.20;;;;;;;8.52;81.20;98925.55;226455;1263;25941;-73
2024/02/19 11:35:33;;;;;;;10.20;8.00;;;;;;;8.47;81.17;98911.48;226497;1273;22555;-75
2024/02/19 11:40:37;;;;;;;9.30;7.70;;;;;;;8.44;81.22;98901.54;226448;1252;22565;-74
2024/02/19 11:45:39;;;;;;;9.00;7.40;;;;;;;8.41;81.58;98899.15;226510;1253;24924;-73
2024/02/19 11:50:44;;;;;;;8.40;7.20;;;;;;;8.40;81.59;98904.27;226495;1272;24988;-73
2024/02/19 11:55:46;;;;;;;9.50;7.00;;;;;;;8.37;81.53;98901.10;226618;1267;22564;-72
2024/02/19 12:00:48;;;;;;;9.20;7.50;;;;;;;8.33;81.60;98898.38;226591;1253;22561;-73
2024/02/19 12:05:51;;;;;;;9.10;6.50;;;;;;;8.33;82.08;98902.15;226674;1267;22908;-73
2024/02/19 12:10:54;;;;;;;9.20;7.70;;;;;;;8.29;81.92;98907.79;226618;1252;22568;-73
2024/02/19 12:15:57;;;;;;;9.40;6.80;;;;;;;8.28;81.79;98902.39;226655;1252;22561;-74
2024/02/19 12:21:00;;;;;;;9.20;6.30;;;;;;;8.32;82.20;98905.48;226709;1267;22546;-73
2024/02/19 12:26:02;;;;;;;7.10;5.50;;;;;;;8.32;81.97;98906.30;226572;1257;24514;-74
2024/02/19 12:31:09;;;;;;;13.10;7.50;;;;;;;8.31;81.81;98908.02;226648;1253;22541;-73
2024/02/19 12:36:12;;;;;;;7.70;5.60;;;;;;;8.32;82.10;98915.45;226401;1252;22546;-73
2024/02/19 12:41:18;;;;;;;7.50;4.90;;;;;;;8.32;81.92;98929.00;226365;1268;22558;-79
2024/02/19 12:46:20;;;;;;;4.40;4.00;;;;;;;8.29;82.50;98954.77;226506;1255;22773;-74
2024/02/19 12:51:31;;;;;;;4.20;2.60;;;;;;;8.20;82.09;98952.13;226637;1256;22556;-74
2024/02/19 12:56:35;;;;;;;1.90;1.70;;;;;;;8.03;81.73;98948.70;226518;1254;22554;-74
2024/02/19 13:01:39;;;;;;;2.00;1.70;;;;;;;7.86;81.93;98949.09;226616;1253;22543;-74
2024/02/19 13:06:41;;;;;;;2.40;2.20;;;;;;;7.71;82.27;98948.15;226552;1267;22596;-74
2024/02/19 13:11:43;;;;;;;3.00;2.00;;;;;;;7.65;82.36;98951.58;226605;1267;24272;-74
2024/02/19 13:16:46;;;;;;;2.80;2.30;;;;;;;7.59;82.43;98956.64;226625;1263;22557;-74
2024/02/19 13:22:03;;;;;;;3.20;2.20;;;;;;;7.52;82.63;98963.55;226511;1255;22571;-74
2024/02/19 13:27:06;;;;;;;2.30;1.90;;;;;;;7.46;82.91;98964.35;226598;1265;25532;-75
2024/02/19 13:32:08;;;;;;;1.90;1.70;;;;;;;7.42;82.98;98965.92;226473;1253;22649;-74
2024/02/19 13:37:10;;;;;;;1.90;1.70;;;;;;;7.41;83.41;98965.67;226435;1267;22937;-74
2024/02/19 13:42:13;;;;;;;2.30;2.00;;;;;;;7.39;83.64;98967.29;226678;1267;22542;-75
2024/02/19 13:47:15;;;;;;;3.20;2.90;;;;;;;7.38;83.56;98973.83;226520;1252;22572;-76
2024/02/19 13:52:17;;;;;;;3.20;2.50;;;;;;;7.37;83.95;98978.04;226711;1268;22575;-76
2024/02/19 13:57:19;;;;;;;2.90;2.70;;;;;;;7.38;84.17;98981.11;226336;1271;22572;-75
2024/02/19 14:02:21;;;;;;;2.90;2.60;;;;;;;7.36;83.78;98979.30;226607;1267;22652;-76
2024/02/19 14:07:24;;;;;;;2.20;2.00;;;;;;;7.31;83.78;98985.34;226534;1255;22550;-75
2024/02/19 14:12:27;;;;;;;2.40;1.90;;;;;;;7.24;84.08;98991.74;226367;1267;191946;-76
2024/02/19 14:17:29;;;;;;;3.50;2.30;;;;;;;7.19;83.85;98997.56;226553;1252;22568;-75
2024/02/19 14:22:31;;;;;;;3.50;3.10;;;;;;;7.15;84.17;99003.89;226695;1253;22934;-75
2024/02/19 14:27:33;;;;;;;4.70;3.10;;;;;;;7.15;84.46;99005.47;226471;1255;25430;-78
2024/02/19 14:32:36;;;;;;;4.90;3.60;;;;;;;7.19;84.37;99004.50;226358;1267;22553;-78
2024/02/19 14:37:40;;;;;;;6.00;4.60;;;;;;;7.25;84.63;99006.36;226585;1265;22569;-75
2024/02/19 14:42:47;;;;;;;6.30;4.50;;;;;;;7.34;84.82;99006.08;226567;1268;22546;-74
2024/02/19 14:47:52;;;;;;;4.40;3.40;;;;;;;7.47;84.87;99008.06;226631;1260;22555;-75
2024/02/19 14:52:54;;;;;;;3.00;2.60;;;;;;;7.64;85.04;99014.52;226591;1260;22585;-78
2024/02/19 14:57:56;;;;;;;2.80;2.40;;;;;;;7.73;84.42;99014.39;226482;1267;23091;-76
2024/02/19 15:02:58;;;;;;;4.00;3.20;;;;;;;7.77;84.22;99017.65;226363;1252;22555;-78
2024/02/19 15:08:00;;;;;;;4.30;3.40;;;;;;;7.79;84.53;99028.30;226039;1274;22560;-77
2024/02/19 15:13:02;;;;;;;3.50;2.60;;;;;;;7.77;84.24;99027.05;226160;1261;22550;-77
2024/02/19 15:18:05;;;;;;;2.00;1.50;;;;;;;7.74;84.06;99032.50;226488;1252;22529;-78
2024/02/19 15:23:07;;;;;;;2.90;1.70;;;;;;;7.63;83.45;99036.70;226397;1260;22601;-77
2024/02/19 15:28:09;;;;;;;2.70;2.00;;;;;;;7.51;83.30;99044.09;226453;1262;22543;-77
2024/02/19 15:33:11;;;;;;;2.00;1.60;;;;;;;7.42;83.40;99050.08;226234;1276;22533;-77
2024/02/19 15:38:13;;;;;;;1.40;1.00;;;;;;;7.33;83.70;99050.84;226791;1273;22924;-77
2024/02/19 15:43:15;;;;;;;1.90;1.50;;;;;;;7.24;83.72;99055.36;226810;1271;25263;-77
2024/02/19 15:48:17;;;;;;;1.70;1.20;;;;;;;7.15;84.09;99066.65;226923;1272;22553;-77
2024/02/19 15:53:19;;;;;;;2.80;1.70;;;;;;;7.05;83.54;99070.05;226732;1272;22547;-77
2024/02/19 15:58:29;;;;;;;2.70;1.60;;;;;;;6.97;84.03;99084.03;226814;1268;22560;-77
2024/02/19 16:03:33;;;;;;;2.00;1.60;;;;;;;6.90;83.79;99095.19;226965;1269;24891;-78
2024/02/19 16:08:35;;;;;;;3.50;2.00;;;;;;;6.82;83.52;99105.30;226766;1273;22569;-77
2024/02/19 16:13:39;;;;;;;2.90;2.10;;;;;;;6.74;83.85;99106.20;226951;1267;22572;-77
2024/02/19 16:18:41;;;;;;;2.70;2.20;;;;;;;6.68;84.27;99111.06;226939;1271;22546;-77
2024/02/19 16:23:44;;;;;;;3.80;2.20;;;;;;;6.63;84.27;99110.67;226795;1273;22570;-77
2024/02/19 16:28:46;;;;;;;4.70;2.10;;;;;;;6.58;84.58;99108.49;226920;1274;22542;-77
2024/02/19 16:33:48;;;;;;;3.50;2.20;;;;;;;6.55;84.54;99112.38;226898;1271;22554;-77
2024/02/19 16:38:51;;;;;;;3.00;1.90;;;;;;;6.53;85.00;99114.63;226885;1272;25039;-78
2024/02/19 16:43:53;;;;;;;2.10;1.60;;;;;;;6.54;84.81;99120.50;226941;1271;22546;-77
2024/02/19 16:48:55;;;;;;;3.50;2.70;;;;;;;6.56;84.52;99126.81;226968;1271;25713;-76
2024/02/19 16:54:00;;;;;;;3.50;2.40;;;;;;;6.58;84.62;99130.41;226963;1267;22616;-78
2024/02/19 16:59:04;;;;;;;4.00;2.50;;;;;;;6.60;83.76;99143.36;226783;1272;22764;-78
2024/02/19 17:04:07;;;;;;;3.50;2.00;;;;;;;6.61;83.61;99144.13;226760;1273;22544;-77
2024/02/19 17:09:09;;;;;;;3.20;1.90;;;;;;;6.63;83.44;99142.58;226773;1273;25253;-78
2024/02/19 17:14:12;;;;;;;3.80;1.80;;;;;;;6.64;82.90;99150.62;226874;1268;22546;-78
2024/02/19 17:19:15;;;;;;;3.40;2.30;;;;;;;6.66;82.64;99156.54;226784;1273;22562;-77
2024/02/19 17:24:17;;;;;;;2.30;1.80;;;;;;;6.65;82.49;99158.22;226739;1274;22546;-79
2024/02/19 17:29:19;;;;;;;4.10;2.10;;;;;;;6.63;82.19;99160.21;226934;1252;22565;-76
2024/02/19 17:34:23;;;;;;;2.50;1.80;;;;;;;6.61;82.49;99166.51;226922;1274;22542;-78
2024/02/19 17:39:26;;;;;;;2.10;1.60;;;;;;;6.60;82.37;99168.36;226902;1268;22704;-76
2024/02/19 17:44:28;;;;;;;1.80;1.60;;;;;;;6.58;82.08;99168.02;226957;1268;22551;-77
2024/02/19 17:49:31;;;;;;;3.60;2.30;;;;;;;6.59;81.69;99171.80;226843;1274;22586;-77
2024/02/19 17:54:33;;;;;;;3.50;2.50;;;;;;;6.58;81.98;99175.90;226902;1271;22555;-77
2024/02/19 17:59:35;;;;;;;2.40;1.70;;;;;;;6.57;82.13;99178.45;226879;1272;22551;-77
2024/02/19 18:04:39;;;;;;;2.60;1.90;;;;;;;6.57;82.12;99184.44;226765;1268;23271;-77
2024/02/19 18:09:41;;;;;;;2.60;2.10;;;;;;;6.57;81.96;99186.58;226867;1272;22650;-77
2024/02/19 18:14:47;;;;;;;2.70;2.10;;;;;;;6.57;82.11;99187.05;226943;1271;22533;-78
2024/02/19 18:19:50;;;;;;;3.90;2.50;;;;;;;6.57;81.94;99189.52;226771;1273;22582;-77
2024/02/19 18:24:52;;;;;;;2.60;2.40;;;;;;;6.55;81.92;99194.05;226913;1271;22549;-77
2024/02/19 18:29:56;;;;;;;3.20;2.50;;;;;;;6.55;82.21;99203.86;226836;1274;22546;-77
2024/02/19 18:35:02;;;;;;;3.70;3.20;;;;;;;6.54;82.13;99205.41;226885;1271;22586;-77
2024/02/19 18:40:08;;;;;;;4.30;3.10;;;;;;;6.52;82.36;99208.55;226912;1271;22554;-77
2024/02/19 18:45:11;;;;;;;4.60;3.50;;;;;;;6.53;82.27;99207.06;226909;1271;22530;-77
2024/02/19 18:50:13;;;;;;;4.00;3.30;;;;;;;6.54;82.33;99206.11;226887;1271;22552;-78
2024/02/19 18:55:15;;;;;;;5.10;2.80;;;;;;;6.55;82.02;99205.65;226837;1271;22574;-77
2024/02/19 19:00:18;;;;;;;3.10;2.80;;;;;;;6.53;81.98;99210.73;226839;1271;24271;-77
2024/02/19 19:05:22;;;;;;;2.90;2.20;;;;;;;6.52;82.01;99211.76;226905;1268;22539;-77
2024/02/19 19:10:25;;;;;;;3.20;2.60;;;;;;;6.51;82.06;99207.06;226798;1268;25271;-78
2024/02/19 19:15:27;;;;;;;3.10;2.60;;;;;;;6.50;82.21;99201.21;226881;1271;22538;-77
2024/02/19 19:20:30;;;;;;;4.40;3.00;;;;;;;6.50;82.36;99199.17;226902;1271;22561;-77
2024/02/19 19:25:32;;;;;;;3.50;2.80;;;;;;;6.45;82.26;99202.43;226908;1268;23429;-78
2024/02/19 19:30:36;;;;;;;3.00;2.60;;;;;;;6.41;82.29;99205.11;226837;1271;22563;-77
2024/02/19 19:35:41;;;;;;;4.00;2.60;;;;;;;6.40;82.18;99209.43;226787;1274;22564;-78
2024/02/19 19:40:44;;;;;;;3.30;2.80;;;;;;;6.40;82.36;99210.59;226740;1274;22488;-77
2024/02/19 19:45:46;;;;;;;3.60;3.10;;;;;;;6.45;82.58;99209.13;226941;1271;22566;-78
2024/02/19 19:50:49;;;;;;;4.10;3.20;;;;;;;6.45;82.35;99209.59;226748;1273;23300;-76
2024/02/19 19:55:53;;;;;;;3.80;3.00;;;;;;;6.45;82.41;99215.73;226876;1271;22853;-77
2024/02/19 20:00:56;;;;;;;4.30;3.20;;;;;;;6.47;82.36;99226.54;226847;1273;22554;-77
2024/02/19 20:05:58;;;;;;;4.40;3.70;;;;;;;6.50;82.93;99228.86;226604;1274;25424;-78
2024/02/19 20:11:00;;;;;;;5.70;3.90;;;;;;;6.48;82.91;99230.48;226774;1271;22554;-78
2024/02/19 20:16:03;;;;;;;4.40;3.70;;;;;;;6.47;83.05;99230.77;226802;1271;22542;-78
2024/02/19 20:21:05;;;;;;;5.50;3.90;;;;;;;6.47;82.97;99239.98;226825;1272;22557;-78
2024/02/19 20:26:07;;;;;;;6.00;3.90;;;;;;;6.46;83.38;99242.93;226881;1267;22550;-78
2024/02/19 20:31:09;;;;;;;8.10;5.50;;;;;;;6.45;83.31;99238.00;226785;1272;22572;-77
2024/02/19 20:36:11;;;;;;;7.60;5.40;;;;;;;6.43;83.15;99235.05;226750;1274;22566;-78
2024/02/19 20:41:13;;;;;;;8.20;5.20;;;;;;;6.42;83.41;99241.90;226833;1267;23661;-78
2024/02/19 20:46:15;;;;;;;7.00;5.00;;;;;;;6.42;83.64;99237.95;226790;1257;22539;-77
2024/02/19 20:51:18;;;;;;;6.80;4.70;;;;;;;6.39;83.94;99247.67;226772;1274;22555;-77
2024/02/19 20:56:20;;;;;;;10.60;5.10;;;;;;;6.34;84.06;99245.27;226773;1274;25380;-77
2024/02/19 21:01:23;;;;;;;7.20;4.50;;;;;;;6.31;84.37;99250.14;226842;1271;22543;-77
2024/02/19 21:06:27;;;;;;;6.70;4.70;;;;;;;6.29;84.10;99255.56;226826;1270;22539;-78
2024/02/19 21:11:31;;;;;;;8.50;5.40;;;;;;;6.30;84.39;99250.97;226809;1269;22561;-77
2024/02/19 21:16:33;;;;;;;7.70;4.70;;;;;;;6.30;84.57;99250.80;226815;1271;22550;-77
2024/02/19 21:21:35;;;;;;;10.10;5.40;;;;;;;6.29;84.52;99248.80;226787;1271;22554;-77
2024/02/19 21:26:37;;;;;;;6.90;4.50;;;;;;;6.29;84.69;99253.85;226790;1271;22636;-77
2024/02/19 21:31:40;;;;;;;6.50;3.90;;;;;;;6.31;84.69;99251.23;226574;1274;22558;-77
2024/02/19 21:36:42;;;;;;;6.40;4.30;;;;;;;6.34;84.63;99251.45;226821;1271;22543;-77
2024/02/19 21:41:46;;;;;;;6.80;4.00;;;;;;;6.37;84.67;99251.16;226530;1274;23544;-77
2024/02/19 21:46:48;;;;;;;5.30;3.30;;;;;;;6.40;84.40;99245.39;226727;1274;23089;-77
2024/02/19 21:51:50;;;;;;;4.60;2.80;;;;;;;6.42;84.64;99250.43;226768;1272;22554;-77
2024/02/19 21:56:52;;;;;;;5.10;2.80;;;;;;;6.44;84.35;99251.73;226772;1271;23330;-79
2024/02/19 22:01:54;;;;;;;3.00;2.50;;;;;;;6.46;84.46;99253.10;226778;1271;22539;-77
2024/02/19 22:07:00;;;;;;;4.40;2.50;;;;;;;6.46;84.46;99249.36;226770;1275;22540;-77
2024/02/19 22:12:02;;;;;;;4.00;2.80;;;;;;;6.48;84.64;99247.95;226758;1271;22549;-77
2024/02/19 22:17:04;;;;;;;4.20;2.20;;;;;;;6.50;84.19;99244.65;226769;1271;22658;-77
2024/02/19 22:22:07;;;;;;;3.80;2.50;;;;;;;6.52;84.42;99247.23;226739;1275;22531;-77
2024/02/19 22:27:09;;;;;;;3.70;2.70;;;;;;;6.53;84.17;99252.70;226710;1271;25346;-77
2024/02/19 22:32:11;;;;;;;3.70;2.70;;;;;;;6.53;84.62;99249.23;226681;1274;22545;-78
2024/02/19 22:37:17;;;;;;;3.60;2.40;;;;;;;6.48;84.45;99247.31;226701;1274;22534;-77
2024/02/19 22:42:19;;;;;;;4.20;2.40;;;;;;;6.42;83.87;99245.24;226564;1274;22533;-76
2024/02/19 22:47:21;;;;;;;3.80;2.10;;;;;;;6.35;84.27;99252.19;226713;1274;22554;-76
2024/02/19 22:52:24;;;;;;;4.10;2.20;;;;;;;6.32;83.86;99261.30;226764;1274;22565;-78
2024/02/19 22:57:26;;;;;;;3.60;1.80;;;;;;;6.28;84.10;99261.27;226754;1272;22558;-76
2024/02/19 23:02:28;;;;;;;4.30;1.60;;;;;;;6.26;84.31;99264.14;226715;1274;22546;-78
2024/02/19 23:07:30;;;;;;;2.70;1.70;;;;;;;6.24;84.23;99268.33;226729;1273;22547;-77
2024/02/19 23:12:32;;;;;;;3.10;1.60;;;;;;;6.22;84.01;99273.27;226762;1271;22542;-77
2024/02/19 23:17:33;;;;;;;2.90;1.80;;;;;;;6.18;84.01;99265.98;226727;1271;24224;-77
2024/02/19 23:22:38;;;;;;;2.20;1.60;;;;;;;6.13;84.30;99269.42;226756;1271;24269;-76
2024/02/19 23:27:40;;;;;;;1.50;1.20;;;;;;;6.10;83.99;99270.80;226801;1271;22558;-77
2024/02/19 23:32:42;;;;;;;1.90;1.30;;;;;;;6.07;84.40;99268.84;226786;1270;22543;-77